首页
METAR-TAF:

METAR-TAF

机场 :

米登霍爾皇家空軍基地

Mildenhall, 英格兰

纬度: 52-22N, 经度: 000-29E, 海拔: 10米

当前天气观测

该预报发布于30分钟前的00:56 UTC
风速10节,风向
温度 5°C
湿度 100%
气压 992 hPa
能见度10公里或以上
少量云层高于3300英尺

METAR: EGUN 140056Z AUTO 08010KT 9999 FEW033 05/05 A2928 RMK AO2 SLP919 T00500050 .

时间: 01:26 (01:26 UTC)

预报

该预报发布于4小时和8分钟前的21:18 UTC
预报有效从13日的 21点(UTC)到 15日的 02点(UTC)
风速9节,风向东南
能见度10公里或以上
多云层高于2500英尺
多云层高于18000英尺
成为
从 14日的 00点(UTC)到 14日的 01点(UTC)
风速12节,风向,有时为20节阵风
能見度: 6000
多云层高于1000英尺
阴天层高于3000英尺
小雨, 轻雾
成为
从 14日的 05点(UTC)到 14日的 06点(UTC)
风速12节,风向东转东北,有时为20节阵风
能見度: 8000
阴天层高于1000英尺
小阵雨
短暂存在
从 14日的 06点(UTC)到 14日的 12点(UTC)
阴天层高于500英尺
成为
从 14日的 15点(UTC)到 14日的 16点(UTC)
风速9节,风向东转东北
能见度10公里或以上
散云层高于1000英尺
多云层高于2000英尺

TAF: EGUN 132118Z 1321/1502 13009KT 9999 BKN025 BKN180 QNH2927INS BECMG 1400/1401 09012G20KT 6000 -RA BR BKN010 OVC030 620409 QNH2927INS BECMG 1405/1406 06012G20KT 8000 -SHRA OVC010 610409 QNH2928INS TEMPO 1406/1412 OVC005 BECMG 1415/1416 07009KT 9999 NSW SCT010 BKN020 QNH2937INS TX06/1406Z TN03/1321Z

超过4000个机场的气象观测和天气预报(METAR&TAF报告)。

可查询的气象台以黄色和红色小点在地图上表示。

将鼠标移到小点上方,可查看气象台名称。

然后点击查看天气观测和预报。

如需切换地图:点击带黑十字的绿色按钮放大地图;点击带横线的绿色按钮缩小地图;或者点击绿色箭头查看邻近地区的地图。


METAR-TAF: